Latest Weather Observations for Dunalley

IDT60801

Issued at 2:32 pm EST Saturday 1 October 2016 (issued every 30 minutes, with the page automatically refreshed every 10 minutes)

About weather observations | Map of weather stations | Latest weather observations for TAS | Other Formats
Station Details ID: 094254 Name: DUNALLEY (STROUD POINT) Lat: -42.90 Lon: 147.79 Height: 12.43 m
Data from the previous 72 hours. | See also: Recent months at Dunalley
Date/Time
EST
Temp
°C
App
Temp
°C
Dew
Point
°C
Rel
Hum
%
Delta-T
°C
Wind Press
QNH
hPa
Press
MSL
hPa
Rain since
9am
mm
Dir  Spd
km/h
Gust
km/h
Spd
kts
Gust
kts
01/02:30pm 15.3 11.4 8.8 65 3.3 NE 19 26 10 14 991.8 991.8 0.0
01/02:00pm 15.5 10.7 9.0 65 3.4 NE 24 26 13 14 991.6 991.6 0.0
01/01:30pm 15.6 12.8 8.6 63 3.6 NE 13 22 7 12 991.9 991.9 0.0
01/01:00pm 15.4 12.6 8.4 63 3.6 NE 13 17 7 9 992.1 992.1 0.0
01/12:30pm 13.2 9.1 7.9 70 2.6 NNE 19 26 10 14 992.3 992.3 0.0
01/12:00pm 12.6 8.4 8.3 75 2.1 NNE 20 28 11 15 992.4 992.4 0.0
01/11:30am 13.0 8.9 7.7 70 2.6 NNE 19 30 10 16 992.8 992.8 0.0
01/11:00am 12.6 8.1 7.1 69 2.7 NE 20 30 11 16 993.1 993.1 0.0
01/10:30am 12.0 7.7 6.9 71 2.4 NNE 19 24 10 13 993.3 993.3 0.0
01/10:00am 12.3 7.0 7.0 70 2.6 NE 24 32 13 17 993.6 993.6 0.0
01/09:30am 11.9 6.5 6.2 68 2.7 NE 24 30 13 16 993.8 993.8 0.0
01/09:00am 11.8 5.9 5.9 67 2.8 NE 26 33 14 18 993.9 993.9 0.2
01/08:30am 11.7 6.2 6.0 68 2.7 NE 24 30 13 16 994.0 994.0 0.2
01/08:00am 11.3 6.2 6.0 70 2.5 NE 22 28 12 15 994.1 994.1 0.2
01/07:30am 10.9 6.2 5.9 71 2.3 NNE 20 28 11 15 994.1 994.1 0.2
01/07:00am 10.9 5.4 5.7 70 2.4 NE 24 32 13 17 993.8 993.8 0.2
01/06:30am 10.7 6.0 6.1 73 2.1 NE 20 28 11 15 993.9 993.9 0.2
01/06:00am 9.9 6.4 5.5 74 2.0 NE 13 20 7 11 993.9 993.9 0.2
01/05:30am 9.4 5.8 4.8 73 2.1 ENE 13 17 7 9 993.6 993.6 0.2
01/05:00am 9.4 5.5 5.2 75 1.9 ENE 15 17 8 9 993.4 993.4 0.2
01/04:30am 8.4 6.3 3.8 73 2.0 NNE 4 13 2 7 993.1 993.1 0.2
01/04:00am 8.4 6.3 3.7 72 2.1 NNE 4 7 2 4 992.9 992.9 0.2
01/03:30am 9.3 4.4 4.3 71 2.2 NE 19 28 10 15 992.7 992.7 0.2
01/03:00am 9.4 3.1 4.0 69 2.4 NNE 26 37 14 20 992.5 992.5 0.2
01/02:30am 9.5 3.6 4.1 69 2.4 NNE 24 33 13 18 992.8 992.8 0.2
01/02:00am 9.7 3.8 3.9 67 2.6 NNE 24 30 13 16 993.0 993.0 0.2
01/01:30am 9.9 3.6 3.9 66 2.6 NNE 26 33 14 18 993.2 993.2 0.2
01/01:00am 9.7 3.5 4.3 69 2.4 NE 26 37 14 20 993.5 993.5 0.2
01/12:30am 9.7 4.3 4.3 69 2.4 NNE 22 35 12 19 993.6 993.6 0.2
01/12:00am 10.0 4.2 4.2 67 2.6 NNE 24 41 13 22 993.6 993.6 0.2
 
Date/Time
EST
Temp
°C
App
Temp
°C
Dew
Point
°C
Rel
Hum
%
Delta-T
°C
Wind Press
QNH
hPa
Press
MSL
hPa
Rain since
9am
mm
Dir  Spd
km/h
Gust
km/h
Spd
kts
Gust
kts
30/11:30pm 10.4 4.7 3.0 60 3.2 N 22 32 12 17 993.5 993.5 0.2
30/11:00pm 10.4 5.2 3.4 62 3.1 N 20 33 11 18 993.6 993.6 0.2
30/10:30pm 10.6 5.4 3.6 62 3.1 N 20 32 11 17 993.7 993.7 0.2
30/10:00pm 11.5 5.3 4.3 61 3.3 NNE 26 41 14 22 993.6 993.6 0.2
30/09:30pm 11.5 5.7 4.5 62 3.2 NNE 24 33 13 18 993.6 993.6 0.2
30/09:00pm 11.8 6.3 4.1 59 3.5 N 22 30 12 16 993.3 993.3 0.2
30/08:30pm 11.7 6.8 4.2 60 3.4 N 19 35 10 19 993.1 993.1 0.2
30/08:00pm 11.9 7.1 4.4 60 3.4 NNE 19 32 10 17 992.9 992.9 0.2
30/07:30pm 12.3 7.5 4.8 60 3.4 NNE 19 33 10 18 992.7 992.7 0.2
30/07:00pm 12.4 7.6 4.6 59 3.6 NNE 19 28 10 15 992.1 992.1 0.2
30/06:30pm 12.9 7.2 4.8 58 3.7 NNE 24 35 13 19 991.4 991.4 0.2
30/06:00pm 13.4 7.3 4.8 56 4.0 NNE 26 41 14 22 990.7 990.7 0.2
30/05:30pm 14.3 8.6 4.9 53 4.4 N 24 41 13 22 990.0 990.0 0.2
30/05:00pm 14.9 9.7 5.4 53 4.6 N 22 33 12 18 989.7 989.7 0.2
30/04:42pm 15.2 8.5 5.7 53 4.5 NE 30 52 16 28 989.3 989.3 0.2
30/04:30pm 15.2 8.9 5.7 53 4.5 NNE 28 41 15 22 989.1 989.1 0.2
30/04:00pm 15.2 8.8 5.4 52 4.7 N 28 41 15 22 988.8 988.8 0.2
30/03:35pm 15.3 9.0 5.5 52 4.7 N 28 46 15 25 988.2 988.2 0.2
30/03:30pm 15.6 10.5 5.8 52 4.7 N 22 41 12 22 988.2 988.2 0.2
30/03:00pm 15.4 7.4 5.9 53 4.6 N 37 56 20 30 987.9 987.9 0.2
30/02:53pm 15.2 8.6 6.0 54 4.4 NNE 30 48 16 26 987.8 987.8 0.2
30/02:30pm 15.4 10.2 7.2 58 4.0 N 24 41 13 22 987.8 987.8 0.2
30/02:00pm 14.7 7.9 7.7 63 3.5 N 33 48 18 26 987.8 987.8 0.0
30/01:30pm 13.7 9.1 9.7 77 2.1 NE 24 35 13 19 987.6 987.6 0.0
30/01:00pm 12.9 8.7 9.9 82 1.6 N 22 37 12 20 987.1 987.1 0.0
30/12:30pm 13.5 7.9 10.3 81 1.7 NE 30 41 16 22 986.7 986.7 0.0
30/12:00pm 12.7 4.9 9.9 83 1.5 ENE 41 50 22 27 986.6 986.6 0.0
30/11:30am 13.3 5.8 10.7 84 1.4 ENE 41 57 22 31 986.3 986.3 0.0
30/11:00am 13.7 5.7 11.0 84 1.4 E 44 63 24 34 986.3 986.3 0.0
30/10:38am 14.0 5.0 10.4 79 1.9 ESE 48 70 26 38 987.0 987.0 0.0
30/10:30am 14.1 5.1 10.3 78 2.0 E 48 65 26 35 987.3 987.3 0.0
30/10:00am 14.1 5.4 9.9 76 2.2 E 46 70 25 38 987.8 987.8 0.0
30/09:30am 13.8 5.2 10.2 79 1.9 E 46 70 25 38 988.6 988.6 0.0
30/09:01am 13.4 4.5 10.6 83 1.5 E 48 69 26 37 988.8 988.8 0.0
30/09:00am 13.4 4.6 10.8 84 1.4 E 48 63 26 34 988.8 988.8 18.6
30/08:36am 13.2 3.8 11.4 89 1.0 E 52 72 28 39 988.6 988.6 18.6
30/08:30am 13.2 3.4 11.4 89 1.0 E 54 72 29 39 988.7 988.7 18.4
30/08:00am 13.1 4.7 11.2 88 1.0 E 46 72 25 39 988.8 988.8 17.0
30/07:46am 12.8 5.0 11.2 90 0.8 ESE 43 65 23 35 989.0 989.0 16.4
30/07:30am 12.5 5.0 10.9 90 0.8 ESE 41 57 22 31 989.3 989.3 14.8
30/07:22am 12.4 5.6 10.8 90 0.8 ESE 37 57 20 31 989.5 989.5 14.2
30/07:00am 12.5 6.1 10.7 89 0.9 ESE 35 54 19 29 990.0 990.0 12.6
30/06:30am 12.6 4.5 10.7 88 1.0 E 44 65 24 35 990.7 990.7 10.6
30/06:04am 12.7 5.1 10.6 87 1.1 E 41 65 22 35 990.5 990.5 9.4
30/06:00am 12.7 5.6 10.8 88 1.0 E 39 52 21 28 990.6 990.6 9.4
30/05:36am 12.6 6.2 10.7 88 1.0 E 35 54 19 29 990.8 990.8 8.4
30/05:30am 12.7 6.7 10.9 89 0.9 E 33 48 18 26 990.9 990.9 8.0
30/05:07am 12.8 4.2 10.3 85 1.3 E 46 67 25 36 990.9 990.9 7.0
30/05:00am 12.8 3.4 10.2 84 1.4 E 50 67 27 36 990.8 990.8 6.8
30/04:47am 12.8 4.0 10.9 88 1.0 E 48 72 26 39 990.8 990.8 6.4
30/04:42am 12.8 3.9 10.7 87 1.1 E 48 67 26 36 990.7 990.7 6.2
30/04:33am 12.4 6.7 11.1 92 0.7 ENE 32 54 17 29 990.8 990.8 6.0
30/04:30am 12.2 6.4 10.9 92 0.7 ENE 32 44 17 24 990.9 990.9 5.8
30/04:13am 12.6 4.8 11.2 91 0.7 ENE 43 61 23 33 991.0 991.0 5.2
30/04:00am 13.2 2.4 10.0 81 1.7 E 57 82 31 44 990.6 990.6 4.8
30/03:30am 13.2 4.0 10.9 86 1.2 E 50 70 27 38 990.8 990.8 4.4
30/03:00am 13.0 3.4 10.7 86 1.2 E 52 74 28 40 991.3 991.3 4.2
30/02:30am 13.0 3.9 11.2 89 0.9 ENE 50 76 27 41 991.8 991.8 3.4
30/02:00am 13.4 4.6 10.8 84 1.4 ENE 48 67 26 36 991.9 991.9 3.2
30/01:30am 13.4 3.4 10.9 85 1.3 E 54 76 29 41 992.3 992.3 3.2
30/01:00am 12.9 4.9 11.1 89 1.0 ENE 44 72 24 39 992.5 992.5 3.2
30/12:43am 13.3 4.8 10.8 85 1.3 E 46 67 25 36 992.8 992.8 2.0
30/12:30am 13.3 4.1 11.0 86 1.2 E 50 65 27 35 992.7 992.7 2.0
30/12:11am 13.1 5.3 11.2 88 1.0 ENE 43 61 23 33 993.0 993.0 1.8
30/12:00am 13.0 5.0 11.2 89 1.0 ENE 44 59 24 32 993.0 993.0 1.8
 
Date/Time
EST
Temp
°C
App
Temp
°C
Dew
Point
°C
Rel
Hum
%
Delta-T
°C
Wind Press
QNH
hPa
Press
MSL
hPa
Rain since
9am
mm
Dir  Spd
km/h
Gust
km/h
Spd
kts
Gust
kts
29/11:47pm 13.0 5.2 11.1 88 1.0 ENE 43 63 23 34 993.0 993.0 1.8
29/11:30pm 13.0 3.5 11.1 88 1.0 E 52 69 28 37 992.8 992.8 1.8
29/11:00pm 13.0 4.6 10.9 87 1.1 E 46 69 25 37 993.3 993.3 1.4
29/10:40pm 13.0 4.6 10.9 87 1.1 ENE 46 65 25 35 993.4 993.4 1.4
29/10:30pm 13.1 3.9 10.8 86 1.2 ENE 50 65 27 35 993.3 993.3 1.2
29/10:00pm 13.0 3.4 10.7 86 1.2 ENE 52 76 28 41 993.7 993.7 1.2
29/09:30pm 12.8 3.1 10.5 86 1.2 ENE 52 72 28 39 994.0 994.0 1.2
29/09:16pm 13.1 4.1 10.3 83 1.4 ENE 48 69 26 37 994.1 994.1 1.2
29/09:00pm 13.1 3.7 10.1 82 1.6 ENE 50 65 27 35 994.3 994.3 1.2
29/08:32pm 13.1 2.9 10.1 82 1.5 ENE 54 74 29 40 993.9 993.9 1.0
29/08:30pm 13.1 2.5 9.9 81 1.6 ENE 56 74 30 40 993.9 993.9 1.0
29/08:20pm 13.0 3.9 10.0 82 1.5 ENE 48 67 26 36 994.0 994.0 1.0
29/08:00pm 12.9 4.2 10.1 83 1.5 ENE 46 63 25 34 994.2 994.2 1.0
29/07:43pm 12.9 4.6 10.1 83 1.4 ENE 44 69 24 37 994.1 994.1 1.0
29/07:30pm 12.9 5.2 10.3 84 1.3 ENE 41 54 22 29 994.2 994.2 1.0
29/07:00pm 12.6 5.0 10.5 87 1.1 ENE 41 57 22 31 994.3 994.3 1.0
29/06:36pm 12.7 2.7 10.6 87 1.1 ENE 54 74 29 40 994.4 994.4 0.8
29/06:30pm 12.7 2.1 10.6 87 1.1 ENE 57 74 31 40 994.4 994.4 0.8
29/06:10pm 13.0 2.0 10.5 85 1.3 ENE 59 80 32 43 994.4 994.4 0.2
29/06:00pm 13.0 2.5 10.4 84 1.4 ENE 56 72 30 39 994.4 994.4 0.2
29/05:30pm 13.2 2.5 10.4 83 1.5 ENE 57 78 31 42 994.1 994.1 0.2
29/05:00pm 13.8 2.3 10.0 78 2.0 ENE 61 83 33 45 994.1 994.1 0.0
29/04:30pm 13.8 2.7 10.2 79 1.9 ENE 59 78 32 42 993.8 993.8 0.0
29/04:07pm 13.8 1.9 10.2 79 1.9 ENE 63 82 34 44 993.7 993.7 0.0
29/04:00pm 13.8 2.7 10.2 79 1.9 ENE 59 76 32 41 993.7 993.7 0.0
29/03:37pm 13.6 2.6 10.4 81 1.7 ENE 59 78 32 42 993.8 993.8 0.0
29/03:30pm 13.4 2.4 10.6 83 1.5 ENE 59 76 32 41 993.8 993.8 0.0
29/03:00pm 13.9 3.2 10.3 79 1.9 ENE 57 74 31 40 994.0 994.0 0.0
29/02:41pm 13.9 4.2 10.5 80 1.8 ENE 52 70 28 38 994.3 994.3 0.0
29/02:30pm 13.9 3.4 10.3 79 1.9 ENE 56 72 30 39 994.3 994.3 0.0
29/02:00pm 13.9 3.4 10.3 79 1.9 ENE 56 76 30 41 994.5 994.5 0.0
29/01:38pm 13.8 4.1 10.4 80 1.8 ENE 52 70 28 38 994.9 994.9 0.0
29/01:30pm 13.9 3.8 10.5 80 1.8 ENE 54 67 29 36 994.9 994.9 0.0
29/01:00pm 14.0 4.7 10.6 80 1.8 ENE 50 72 27 39 995.2 995.2 0.0
29/12:58pm 13.9 4.5 10.3 79 1.9 ENE 50 72 27 39 995.2 995.2 0.0
29/12:30pm 14.0 4.3 10.6 80 1.8 ENE 52 69 28 37 995.5 995.5 0.0
29/12:00pm 14.1 4.1 10.9 81 1.7 ENE 54 72 29 39 995.8 995.8 0.0
29/11:33am 14.2 5.1 11.2 82 1.6 ENE 50 69 27 37 996.4 996.4 0.0
29/11:30am 14.1 4.5 10.9 81 1.7 ENE 52 69 28 37 996.4 996.4 0.0
29/11:00am 14.1 4.6 11.3 83 1.5 ENE 52 69 28 37 996.3 996.3 0.0
29/10:30am 13.8 4.7 11.3 85 1.3 ENE 50 70 27 38 996.9 996.9 0.0
29/10:21am 13.8 4.7 11.3 85 1.3 ENE 50 69 27 37 997.2 997.2 0.0
29/10:00am 13.6 5.4 11.7 88 1.0 ENE 46 61 25 33 997.4 997.4 0.0
29/09:30am 14.0 4.6 11.5 85 1.3 NE 52 63 28 34 997.5 997.5 0.0
29/09:00am 14.1 4.0 11.8 86 1.2 NE 56 74 30 40 997.6 997.6 0.4
29/08:30am 14.4 4.2 11.4 82 1.6 NE 56 69 30 37 997.4 997.4 0.4
29/08:00am 14.1 4.7 11.4 84 1.4 NE 52 65 28 35 997.8 997.8 0.4
29/07:30am 14.0 4.1 11.0 82 1.6 NE 54 67 29 36 997.9 997.9 0.4
29/07:00am 14.0 5.9 10.6 80 1.8 NE 44 65 24 35 998.2 998.2 0.4
29/06:30am 13.8 7.3 10.4 80 1.8 NE 35 44 19 24 999.0 999.0 0.4
29/06:00am 13.7 7.6 10.5 81 1.7 NE 33 44 18 24 999.1 999.1 0.4
29/05:30am 13.1 7.7 10.8 86 1.2 NE 30 41 16 22 999.6 999.6 0.4
29/05:00am 13.2 7.3 10.4 83 1.5 ENE 32 41 17 22 999.7 999.7 0.4
29/04:30am 12.8 8.3 10.2 84 1.3 NNE 24 37 13 20 1000.2 1000.2 0.4
29/04:00am 12.1 7.6 10.2 88 1.0 NE 24 30 13 16 1000.5 1000.5 0.4
29/03:30am 11.8 7.2 9.5 86 1.2 NNE 24 32 13 17 1001.2 1001.2 0.4
29/03:00am 11.9 6.0 9.1 83 1.4 NE 30 39 16 21 1001.4 1001.4 0.4
29/02:30am 11.6 7.5 8.6 82 1.5 NNE 20 28 11 15 1002.1 1002.1 0.4
29/02:00am 11.4 6.4 7.9 79 1.7 NNE 24 35 13 19 1002.9 1002.9 0.4
29/01:30am 10.8 8.0 6.9 77 1.8 NNE 11 17 6 9 1003.5 1003.5 0.4
29/01:00am 11.0 7.9 7.1 77 1.9 NNE 13 17 7 9 1003.7 1003.7 0.4
29/12:30am 11.1 7.9 8.5 84 1.3 NNE 15 19 8 10 1004.0 1004.0 0.4
29/12:00am 11.0 8.8 9.3 89 0.9 NE 11 15 6 8 1004.1 1004.1 0.4
 
Date/Time
EST
Temp
°C
App
Temp
°C
Dew
Point
°C
Rel
Hum
%
Delta-T
°C
Wind Press
QNH
hPa
Press
MSL
hPa
Rain since
9am
mm
Dir  Spd
km/h
Gust
km/h
Spd
kts
Gust
kts
28/11:30pm 11.6 9.1 9.7 88 1.0 NNE 13 17 7 9 1004.3 1004.3 0.4
28/11:00pm 11.7 9.2 9.6 87 1.1 NE 13 17 7 9 1004.5 1004.5 0.4
28/10:30pm 12.0 10.0 10.1 88 1.0 NNE 11 15 6 8 1004.7 1004.7 0.4
28/10:00pm 11.9 8.7 10.1 89 0.9 NNE 17 20 9 11 1004.7 1004.7 0.4
28/09:30pm 12.4 8.8 10.6 89 0.9 NE 20 30 11 16 1005.0 1005.0 0.4
28/09:00pm 12.7 7.2 10.4 86 1.2 NE 30 37 16 20 1005.4 1005.4 0.0
28/08:30pm 12.3 6.1 10.2 87 1.1 NE 33 39 18 21 1005.7 1005.7 0.0
28/08:00pm 12.3 5.6 9.7 84 1.3 NE 35 43 19 23 1005.7 1005.7 0.0
28/07:30pm 12.4 4.9 9.4 82 1.5 NE 39 48 21 26 1005.6 1005.6 0.0
28/07:00pm 12.5 3.8 8.6 77 1.9 ENE 44 52 24 28 1005.2 1005.2 0.0
28/06:30pm 12.8 5.4 8.3 74 2.2 NE 37 48 20 26 1005.7 1005.7 0.0
28/06:00pm 12.7 4.4 7.8 72 2.4 NE 41 50 22 27 1005.7 1005.7 0.0
28/05:30pm 12.7 5.0 7.0 68 2.7 ENE 37 46 20 25 1005.4 1005.4 0.0
28/05:00pm 12.8 5.2 5.7 62 3.3 ENE 35 44 19 24 1005.3 1005.3 0.0
28/04:30pm 13.1 5.2 6.0 62 3.4 ENE 37 44 20 24 1005.4 1005.4 0.0
28/04:00pm 13.6 5.7 6.0 60 3.6 ENE 37 48 20 26 1005.6 1005.6 0.0
28/03:30pm 14.1 6.9 5.2 55 4.2 ENE 32 43 17 23 1005.9 1005.9 0.0
28/03:00pm 14.3 7.6 5.4 55 4.2 ENE 30 35 16 19 1006.5 1006.5 0.0

Other Formats:

Comma delimited format used in spreadsheet applications
http://www.bom.gov.au/fwo/IDT60801/IDT60801.94951.axf

JavaScript Object Notation format (JSON) in row-major order
http://www.bom.gov.au/fwo/IDT60801/IDT60801.94951.json